sensor_id;sensor_type;location;lat;lon;timestamp;temperature;humidity
19999;DHT22;10160;50.926;4.374;2023-04-24T00:01:41;10.00;99.90
19999;DHT22;10160;50.926;4.374;2023-04-24T00:04:08;10.10;99.90
19999;DHT22;10160;50.926;4.374;2023-04-24T00:06:36;9.90;99.90
19999;DHT22;10160;50.926;4.374;2023-04-24T00:09:03;9.90;99.90
19999;DHT22;10160;50.926;4.374;2023-04-24T00:11:29;9.90;99.90
19999;DHT22;10160;50.926;4.374;2023-04-24T00:13:55;9.90;99.90
19999;DHT22;10160;50.926;4.374;2023-04-24T00:16:22;9.90;99.90
19999;DHT22;10160;50.926;4.374;2023-04-24T00:18:48;9.80;99.90
19999;DHT22;10160;50.926;4.374;2023-04-24T00:21:16;9.90;99.90
19999;DHT22;10160;50.926;4.374;2023-04-24T00:23:43;9.90;99.90
19999;DHT22;10160;50.926;4.374;2023-04-24T00:26:09;9.90;99.90
19999;DHT22;10160;50.926;4.374;2023-04-24T00:28:35;9.90;99.90
19999;DHT22;10160;50.926;4.374;2023-04-24T00:31:01;9.90;99.90
19999;DHT22;10160;50.926;4.374;2023-04-24T00:33:27;9.90;99.90
19999;DHT22;10160;50.926;4.374;2023-04-24T00:35:52;9.90;99.90
19999;DHT22;10160;50.926;4.374;2023-04-24T00:38:18;9.80;99.90
19999;DHT22;10160;50.926;4.374;2023-04-24T00:40:44;9.80;99.90
19999;DHT22;10160;50.926;4.374;2023-04-24T00:43:10;9.80;99.90
19999;DHT22;10160;50.926;4.374;2023-04-24T00:45:36;9.80;99.90
19999;DHT22;10160;50.926;4.374;2023-04-24T00:48:02;9.70;99.90
19999;DHT22;10160;50.926;4.374;2023-04-24T00:50:28;9.80;99.90
19999;DHT22;10160;50.926;4.374;2023-04-24T00:52:54;9.80;99.90
19999;DHT22;10160;50.926;4.374;2023-04-24T00:55:20;9.80;99.90
19999;DHT22;10160;50.926;4.374;2023-04-24T00:57:46;9.80;99.90
19999;DHT22;10160;50.926;4.374;2023-04-24T01:00:14;9.80;99.90
19999;DHT22;10160;50.926;4.374;2023-04-24T01:02:41;9.70;99.90
19999;DHT22;10160;50.926;4.374;2023-04-24T01:05:13;9.70;99.90
19999;DHT22;10160;50.926;4.374;2023-04-24T01:07:41;9.70;99.90
19999;DHT22;10160;50.926;4.374;2023-04-24T01:10:11;9.70;99.90
19999;DHT22;10160;50.926;4.374;2023-04-24T01:12:37;9.70;99.90
19999;DHT22;10160;50.926;4.374;2023-04-24T01:15:03;9.70;99.90
19999;DHT22;10160;50.926;4.374;2023-04-24T01:17:29;9.60;99.90
19999;DHT22;10160;50.926;4.374;2023-04-24T01:19:55;9.60;99.90
19999;DHT22;10160;50.926;4.374;2023-04-24T01:22:22;9.60;99.90
19999;DHT22;10160;50.926;4.374;2023-04-24T01:24:48;9.50;99.90
19999;DHT22;10160;50.926;4.374;2023-04-24T01:27:14;9.50;99.90
19999;DHT22;10160;50.926;4.374;2023-04-24T01:29:40;9.60;99.90
19999;DHT22;10160;50.926;4.374;2023-04-24T01:32:07;9.50;99.90
19999;DHT22;10160;50.926;4.374;2023-04-24T01:34:33;9.50;99.90
19999;DHT22;10160;50.926;4.374;2023-04-24T01:36:59;9.60;99.90
19999;DHT22;10160;50.926;4.374;2023-04-24T01:39:26;9.50;99.90
19999;DHT22;10160;50.926;4.374;2023-04-24T01:41:54;9.50;99.90
19999;DHT22;10160;50.926;4.374;2023-04-24T01:44:20;9.50;99.90
19999;DHT22;10160;50.926;4.374;2023-04-24T01:46:46;9.50;99.90
19999;DHT22;10160;50.926;4.374;2023-04-24T01:49:12;9.50;99.90
19999;DHT22;10160;50.926;4.374;2023-04-24T01:51:38;9.40;99.90
19999;DHT22;10160;50.926;4.374;2023-04-24T01:54:03;9.40;99.90
19999;DHT22;10160;50.926;4.374;2023-04-24T01:56:31;9.40;99.90
19999;DHT22;10160;50.926;4.374;2023-04-24T01:58:59;9.40;99.90
19999;DHT22;10160;50.926;4.374;2023-04-24T02:01:25;9.30;99.90
19999;DHT22;10160;50.926;4.374;2023-04-24T02:03:51;9.30;99.90
19999;DHT22;10160;50.926;4.374;2023-04-24T02:06:17;9.40;99.90
19999;DHT22;10160;50.926;4.374;2023-04-24T02:08:42;9.40;99.90
19999;DHT22;10160;50.926;4.374;2023-04-24T02:11:11;9.50;99.90
19999;DHT22;10160;50.926;4.374;2023-04-24T02:13:37;9.50;99.90
19999;DHT22;10160;50.926;4.374;2023-04-24T02:16:03;9.50;99.90
19999;DHT22;10160;50.926;4.374;2023-04-24T02:18:28;9.60;99.90
19999;DHT22;10160;50.926;4.374;2023-04-24T02:20:54;9.60;99.90
19999;DHT22;10160;50.926;4.374;2023-04-24T02:23:19;9.60;99.90
19999;DHT22;10160;50.926;4.374;2023-04-24T02:25:45;9.50;99.90
19999;DHT22;10160;50.926;4.374;2023-04-24T02:28:11;9.50;99.90
19999;DHT22;10160;50.926;4.374;2023-04-24T02:30:37;9.60;99.90
19999;DHT22;10160;50.926;4.374;2023-04-24T02:33:02;9.50;99.90
19999;DHT22;10160;50.926;4.374;2023-04-24T02:35:28;9.50;99.90
19999;DHT22;10160;50.926;4.374;2023-04-24T02:37:54;9.50;99.90
19999;DHT22;10160;50.926;4.374;2023-04-24T02:40:20;9.50;99.90
19999;DHT22;10160;50.926;4.374;2023-04-24T02:42:45;9.50;99.90
19999;DHT22;10160;50.926;4.374;2023-04-24T02:45:11;9.40;99.90
19999;DHT22;10160;50.926;4.374;2023-04-24T02:47:36;9.40;99.90
19999;DHT22;10160;50.926;4.374;2023-04-24T02:50:02;9.30;99.90
19999;DHT22;10160;50.926;4.374;2023-04-24T02:52:28;9.30;99.90
19999;DHT22;10160;50.926;4.374;2023-04-24T02:54:54;9.30;99.90
19999;DHT22;10160;50.926;4.374;2023-04-24T02:57:20;9.30;99.90
19999;DHT22;10160;50.926;4.374;2023-04-24T02:59:46;9.20;99.90
19999;DHT22;10160;50.926;4.374;2023-04-24T03:02:11;9.20;99.90
19999;DHT22;10160;50.926;4.374;2023-04-24T03:04:37;9.30;99.90
19999;DHT22;10160;50.926;4.374;2023-04-24T03:07:03;9.30;99.90
19999;DHT22;10160;50.926;4.374;2023-04-24T03:09:29;9.20;99.90
19999;DHT22;10160;50.926;4.374;2023-04-24T03:11:55;9.30;99.90
19999;DHT22;10160;50.926;4.374;2023-04-24T03:14:21;9.30;99.90
19999;DHT22;10160;50.926;4.374;2023-04-24T03:16:47;9.30;99.90
19999;DHT22;10160;50.926;4.374;2023-04-24T03:19:13;9.30;99.90
19999;DHT22;10160;50.926;4.374;2023-04-24T03:21:39;9.30;99.90
19999;DHT22;10160;50.926;4.374;2023-04-24T03:24:09;9.30;99.90
19999;DHT22;10160;50.926;4.374;2023-04-24T03:26:35;9.30;99.90
19999;DHT22;10160;50.926;4.374;2023-04-24T03:29:01;9.20;99.90
19999;DHT22;10160;50.926;4.374;2023-04-24T03:31:27;9.30;99.90
19999;DHT22;10160;50.926;4.374;2023-04-24T03:33:52;9.30;99.90
19999;DHT22;10160;50.926;4.374;2023-04-24T03:36:18;9.50;99.90
19999;DHT22;10160;50.926;4.374;2023-04-24T03:38:44;9.40;99.90
19999;DHT22;10160;50.926;4.374;2023-04-24T03:41:10;9.50;99.90
19999;DHT22;10160;50.926;4.374;2023-04-24T03:43:37;9.50;99.90
19999;DHT22;10160;50.926;4.374;2023-04-24T03:46:03;9.40;99.90
19999;DHT22;10160;50.926;4.374;2023-04-24T03:48:29;9.40;99.90
19999;DHT22;10160;50.926;4.374;2023-04-24T03:50:55;9.50;99.90
19999;DHT22;10160;50.926;4.374;2023-04-24T03:53:21;9.50;99.90
19999;DHT22;10160;50.926;4.374;2023-04-24T03:55:47;9.60;99.90
19999;DHT22;10160;50.926;4.374;2023-04-24T03:58:12;9.60;99.90
19999;DHT22;10160;50.926;4.374;2023-04-24T04:00:41;9.60;99.90
19999;DHT22;10160;50.926;4.374;2023-04-24T04:03:07;9.50;99.90
19999;DHT22;10160;50.926;4.374;2023-04-24T04:05:32;9.50;99.90
19999;DHT22;10160;50.926;4.374;2023-04-24T04:07:58;9.50;99.90
19999;DHT22;10160;50.926;4.374;2023-04-24T04:10:23;9.50;99.90
19999;DHT22;10160;50.926;4.374;2023-04-24T04:12:49;9.60;99.90
19999;DHT22;10160;50.926;4.374;2023-04-24T04:15:15;9.60;99.90
19999;DHT22;10160;50.926;4.374;2023-04-24T04:17:40;9.60;99.90
19999;DHT22;10160;50.926;4.374;2023-04-24T04:20:07;9.50;99.90
19999;DHT22;10160;50.926;4.374;2023-04-24T04:22:35;9.50;99.90
19999;DHT22;10160;50.926;4.374;2023-04-24T04:25:01;9.30;99.90
19999;DHT22;10160;50.926;4.374;2023-04-24T04:27:27;9.30;99.90
19999;DHT22;10160;50.926;4.374;2023-04-24T04:29:54;9.30;99.90
19999;DHT22;10160;50.926;4.374;2023-04-24T04:32:22;9.30;99.90
19999;DHT22;10160;50.926;4.374;2023-04-24T04:34:47;9.40;99.90
19999;DHT22;10160;50.926;4.374;2023-04-24T04:37:15;9.30;99.90
19999;DHT22;10160;50.926;4.374;2023-04-24T04:39:40;9.40;99.90
19999;DHT22;10160;50.926;4.374;2023-04-24T04:42:06;9.40;99.90
19999;DHT22;10160;50.926;4.374;2023-04-24T04:44:32;9.30;99.90
19999;DHT22;10160;50.926;4.374;2023-04-24T04:46:58;9.30;99.90
19999;DHT22;10160;50.926;4.374;2023-04-24T04:49:25;9.30;99.90
19999;DHT22;10160;50.926;4.374;2023-04-24T04:51:53;9.30;99.90
19999;DHT22;10160;50.926;4.374;2023-04-24T04:54:19;9.30;99.90
19999;DHT22;10160;50.926;4.374;2023-04-24T04:56:45;9.30;99.90
19999;DHT22;10160;50.926;4.374;2023-04-24T04:59:10;9.30;99.90
19999;DHT22;10160;50.926;4.374;2023-04-24T05:01:36;9.30;99.90
19999;DHT22;10160;50.926;4.374;2023-04-24T05:04:02;9.40;99.90
19999;DHT22;10160;50.926;4.374;2023-04-24T05:06:27;9.40;99.90
19999;DHT22;10160;50.926;4.374;2023-04-24T05:08:53;9.30;99.90
19999;DHT22;10160;50.926;4.374;2023-04-24T05:11:23;9.30;99.90
19999;DHT22;10160;50.926;4.374;2023-04-24T05:13:49;9.40;99.90
19999;DHT22;10160;50.926;4.374;2023-04-24T05:16:14;9.30;99.90
19999;DHT22;10160;50.926;4.374;2023-04-24T05:18:40;9.30;99.90
19999;DHT22;10160;50.926;4.374;2023-04-24T05:21:06;9.40;99.90
19999;DHT22;10160;50.926;4.374;2023-04-24T05:23:32;9.30;99.90
19999;DHT22;10160;50.926;4.374;2023-04-24T05:25:57;9.30;99.90
19999;DHT22;10160;50.926;4.374;2023-04-24T05:28:23;9.40;99.90
19999;DHT22;10160;50.926;4.374;2023-04-24T05:30:51;9.50;99.90
19999;DHT22;10160;50.926;4.374;2023-04-24T05:33:17;9.40;99.90
19999;DHT22;10160;50.926;4.374;2023-04-24T05:35:43;9.40;99.90
19999;DHT22;10160;50.926;4.374;2023-04-24T05:38:12;9.30;99.90
19999;DHT22;10160;50.926;4.374;2023-04-24T05:40:39;9.30;99.90
19999;DHT22;10160;50.926;4.374;2023-04-24T05:43:04;9.20;99.90
19999;DHT22;10160;50.926;4.374;2023-04-24T05:45:30;9.20;99.90
19999;DHT22;10160;50.926;4.374;2023-04-24T05:47:57;9.20;99.90
19999;DHT22;10160;50.926;4.374;2023-04-24T05:50:22;9.30;99.90
19999;DHT22;10160;50.926;4.374;2023-04-24T05:52:48;9.30;99.90
19999;DHT22;10160;50.926;4.374;2023-04-24T05:55:14;9.40;99.90
19999;DHT22;10160;50.926;4.374;2023-04-24T05:57:42;9.30;99.90
19999;DHT22;10160;50.926;4.374;2023-04-24T06:00:09;9.30;99.90
19999;DHT22;10160;50.926;4.374;2023-04-24T06:02:37;9.20;99.90
19999;DHT22;10160;50.926;4.374;2023-04-24T06:05:04;9.30;99.90
19999;DHT22;10160;50.926;4.374;2023-04-24T06:07:30;9.20;99.90
19999;DHT22;10160;50.926;4.374;2023-04-24T06:09:56;9.10;99.90
19999;DHT22;10160;50.926;4.374;2023-04-24T06:12:22;9.10;99.90
19999;DHT22;10160;50.926;4.374;2023-04-24T06:14:48;9.10;99.90
19999;DHT22;10160;50.926;4.374;2023-04-24T06:17:14;9.00;99.90
19999;DHT22;10160;50.926;4.374;2023-04-24T06:19:40;9.10;99.90
19999;DHT22;10160;50.926;4.374;2023-04-24T06:22:06;9.00;99.90
19999;DHT22;10160;50.926;4.374;2023-04-24T06:24:31;9.10;99.90
19999;DHT22;10160;50.926;4.374;2023-04-24T06:26:57;9.10;99.90
19999;DHT22;10160;50.926;4.374;2023-04-24T06:29:25;9.10;99.90
19999;DHT22;10160;50.926;4.374;2023-04-24T06:31:50;9.10;99.90
19999;DHT22;10160;50.926;4.374;2023-04-24T06:34:16;9.10;99.90
19999;DHT22;10160;50.926;4.374;2023-04-24T06:36:42;9.10;99.90
19999;DHT22;10160;50.926;4.374;2023-04-24T06:39:07;9.20;99.90
19999;DHT22;10160;50.926;4.374;2023-04-24T06:41:33;9.20;99.90
19999;DHT22;10160;50.926;4.374;2023-04-24T06:43:59;9.20;99.90
19999;DHT22;10160;50.926;4.374;2023-04-24T06:46:24;9.30;99.90
19999;DHT22;10160;50.926;4.374;2023-04-24T06:48:52;9.20;99.90
19999;DHT22;10160;50.926;4.374;2023-04-24T06:51:24;9.20;99.90
19999;DHT22;10160;50.926;4.374;2023-04-24T06:53:51;9.20;99.90
19999;DHT22;10160;50.926;4.374;2023-04-24T06:56:17;9.30;99.90
19999;DHT22;10160;50.926;4.374;2023-04-24T06:58:43;9.40;99.90
19999;DHT22;10160;50.926;4.374;2023-04-24T07:01:09;9.40;99.90
19999;DHT22;10160;50.926;4.374;2023-04-24T07:03:35;9.40;99.90
19999;DHT22;10160;50.926;4.374;2023-04-24T07:06:01;9.40;99.90
19999;DHT22;10160;50.926;4.374;2023-04-24T07:08:26;9.50;99.90
19999;DHT22;10160;50.926;4.374;2023-04-24T07:10:52;9.50;99.90
19999;DHT22;10160;50.926;4.374;2023-04-24T07:13:18;9.60;99.90
19999;DHT22;10160;50.926;4.374;2023-04-24T07:15:43;9.60;99.90
19999;DHT22;10160;50.926;4.374;2023-04-24T07:18:09;9.50;99.90
19999;DHT22;10160;50.926;4.374;2023-04-24T07:20:35;9.60;99.90
19999;DHT22;10160;50.926;4.374;2023-04-24T07:23:02;9.60;99.90
19999;DHT22;10160;50.926;4.374;2023-04-24T07:25:27;9.60;99.90
19999;DHT22;10160;50.926;4.374;2023-04-24T07:27:53;9.50;99.90
19999;DHT22;10160;50.926;4.374;2023-04-24T07:30:18;9.50;99.90
19999;DHT22;10160;50.926;4.374;2023-04-24T07:32:44;9.40;99.90
19999;DHT22;10160;50.926;4.374;2023-04-24T07:35:10;9.40;99.90
19999;DHT22;10160;50.926;4.374;2023-04-24T07:37:36;9.50;99.90
19999;DHT22;10160;50.926;4.374;2023-04-24T07:40:02;9.60;99.90
19999;DHT22;10160;50.926;4.374;2023-04-24T07:42:28;9.70;99.90
19999;DHT22;10160;50.926;4.374;2023-04-24T07:44:56;9.70;99.90
19999;DHT22;10160;50.926;4.374;2023-04-24T07:47:22;9.80;99.90
19999;DHT22;10160;50.926;4.374;2023-04-24T07:49:47;9.90;99.90
19999;DHT22;10160;50.926;4.374;2023-04-24T07:52:13;10.10;99.90
19999;DHT22;10160;50.926;4.374;2023-04-24T07:54:39;10.10;99.90
19999;DHT22;10160;50.926;4.374;2023-04-24T07:57:04;10.30;99.90
19999;DHT22;10160;50.926;4.374;2023-04-24T07:59:32;10.40;99.90
19999;DHT22;10160;50.926;4.374;2023-04-24T08:01:57;10.50;99.90
19999;DHT22;10160;50.926;4.374;2023-04-24T08:04:23;10.40;99.90
19999;DHT22;10160;50.926;4.374;2023-04-24T08:06:49;10.20;99.90
19999;DHT22;10160;50.926;4.374;2023-04-24T08:09:14;10.20;99.90
19999;DHT22;10160;50.926;4.374;2023-04-24T08:11:40;10.30;99.90
19999;DHT22;10160;50.926;4.374;2023-04-24T08:14:06;10.20;99.90
19999;DHT22;10160;50.926;4.374;2023-04-24T08:16:33;10.20;99.90
19999;DHT22;10160;50.926;4.374;2023-04-24T08:19:00;10.30;99.90
19999;DHT22;10160;50.926;4.374;2023-04-24T08:21:25;10.40;99.90
19999;DHT22;10160;50.926;4.374;2023-04-24T08:23:52;10.60;99.90
19999;DHT22;10160;50.926;4.374;2023-04-24T08:26:18;10.70;99.90
19999;DHT22;10160;50.926;4.374;2023-04-24T08:28:44;10.80;99.90
19999;DHT22;10160;50.926;4.374;2023-04-24T08:31:09;11.10;99.90
19999;DHT22;10160;50.926;4.374;2023-04-24T08:33:35;11.30;99.90
19999;DHT22;10160;50.926;4.374;2023-04-24T08:36:05;11.40;99.90
19999;DHT22;10160;50.926;4.374;2023-04-24T08:38:31;11.60;99.90
19999;DHT22;10160;50.926;4.374;2023-04-24T08:40:58;11.40;99.90
19999;DHT22;10160;50.926;4.374;2023-04-24T08:43:25;11.20;99.90
19999;DHT22;10160;50.926;4.374;2023-04-24T08:45:51;11.20;99.90
19999;DHT22;10160;50.926;4.374;2023-04-24T08:48:18;11.10;99.90
19999;DHT22;10160;50.926;4.374;2023-04-24T08:50:44;11.00;99.90
19999;DHT22;10160;50.926;4.374;2023-04-24T08:53:10;10.90;99.90
19999;DHT22;10160;50.926;4.374;2023-04-24T08:55:37;10.90;99.90
19999;DHT22;10160;50.926;4.374;2023-04-24T08:58:04;11.00;99.90
19999;DHT22;10160;50.926;4.374;2023-04-24T09:00:29;10.80;99.90
19999;DHT22;10160;50.926;4.374;2023-04-24T09:02:56;11.00;99.90
19999;DHT22;10160;50.926;4.374;2023-04-24T09:05:23;11.30;99.90
19999;DHT22;10160;50.926;4.374;2023-04-24T09:07:55;11.70;99.90
19999;DHT22;10160;50.926;4.374;2023-04-24T09:10:23;12.10;99.90
19999;DHT22;10160;50.926;4.374;2023-04-24T09:12:50;12.00;99.90
19999;DHT22;10160;50.926;4.374;2023-04-24T09:15:17;11.90;99.90
19999;DHT22;10160;50.926;4.374;2023-04-24T09:17:43;11.80;99.90
19999;DHT22;10160;50.926;4.374;2023-04-24T09:20:09;11.80;99.90
19999;DHT22;10160;50.926;4.374;2023-04-24T09:22:36;11.80;99.90
19999;DHT22;10160;50.926;4.374;2023-04-24T09:25:03;11.70;99.90
19999;DHT22;10160;50.926;4.374;2023-04-24T09:27:31;11.60;99.90
19999;DHT22;10160;50.926;4.374;2023-04-24T09:29:57;11.60;99.90
19999;DHT22;10160;50.926;4.374;2023-04-24T09:32:24;11.60;99.90
19999;DHT22;10160;50.926;4.374;2023-04-24T09:35:12;11.90;99.90
19999;DHT22;10160;50.926;4.374;2023-04-24T09:37:43;12.30;99.90
19999;DHT22;10160;50.926;4.374;2023-04-24T09:40:20;12.30;99.90
19999;DHT22;10160;50.926;4.374;2023-04-24T09:42:54;12.20;99.90
19999;DHT22;10160;50.926;4.374;2023-04-24T09:45:21;12.30;99.90
19999;DHT22;10160;50.926;4.374;2023-04-24T09:47:51;12.20;99.90
19999;DHT22;10160;50.926;4.374;2023-04-24T09:50:18;12.00;99.90
19999;DHT22;10160;50.926;4.374;2023-04-24T09:53:01;12.00;99.90
19999;DHT22;10160;50.926;4.374;2023-04-24T09:55:27;11.80;99.90
19999;DHT22;10160;50.926;4.374;2023-04-24T09:57:58;11.80;99.90
19999;DHT22;10160;50.926;4.374;2023-04-24T10:00:30;11.90;99.90
19999;DHT22;10160;50.926;4.374;2023-04-24T10:03:01;11.90;99.90
19999;DHT22;10160;50.926;4.374;2023-04-24T10:05:34;11.80;99.90
19999;DHT22;10160;50.926;4.374;2023-04-24T10:10:29;12.10;99.90
19999;DHT22;10160;50.926;4.374;2023-04-24T10:12:55;12.30;99.90
19999;DHT22;10160;50.926;4.374;2023-04-24T10:15:21;12.50;99.90
19999;DHT22;10160;50.926;4.374;2023-04-24T10:17:51;12.70;99.90
19999;DHT22;10160;50.926;4.374;2023-04-24T10:20:21;12.80;99.90
19999;DHT22;10160;50.926;4.374;2023-04-24T10:22:53;12.70;99.90
19999;DHT22;10160;50.926;4.374;2023-04-24T10:25:20;12.60;99.90
19999;DHT22;10160;50.926;4.374;2023-04-24T10:27:47;12.60;99.90
19999;DHT22;10160;50.926;4.374;2023-04-24T10:30:13;12.50;99.90
19999;DHT22;10160;50.926;4.374;2023-04-24T10:32:40;12.50;99.90
19999;DHT22;10160;50.926;4.374;2023-04-24T10:35:10;12.30;99.90
19999;DHT22;10160;50.926;4.374;2023-04-24T10:37:44;12.00;99.90
19999;DHT22;10160;50.926;4.374;2023-04-24T10:40:11;12.10;99.90
19999;DHT22;10160;50.926;4.374;2023-04-24T10:42:41;12.30;99.90
19999;DHT22;10160;50.926;4.374;2023-04-24T10:45:16;12.40;99.90
19999;DHT22;10160;50.926;4.374;2023-04-24T10:47:56;12.60;99.90
19999;DHT22;10160;50.926;4.374;2023-04-24T10:50:22;12.60;99.90
19999;DHT22;10160;50.926;4.374;2023-04-24T10:52:49;12.60;99.90
19999;DHT22;10160;50.926;4.374;2023-04-24T10:55:40;12.50;99.90
19999;DHT22;10160;50.926;4.374;2023-04-24T10:58:06;12.50;99.90
19999;DHT22;10160;50.926;4.374;2023-04-24T11:00:32;12.60;99.90
19999;DHT22;10160;50.926;4.374;2023-04-24T11:02:58;12.40;99.90
19999;DHT22;10160;50.926;4.374;2023-04-24T11:05:51;12.40;99.90
19999;DHT22;10160;50.926;4.374;2023-04-24T11:08:24;12.50;99.90
19999;DHT22;10160;50.926;4.374;2023-04-24T11:13:26;12.80;99.90
19999;DHT22;10160;50.926;4.374;2023-04-24T11:16:12;12.80;99.90
19999;DHT22;10160;50.926;4.374;2023-04-24T11:18:38;12.70;99.90
19999;DHT22;10160;50.926;4.374;2023-04-24T11:21:15;12.80;99.90
19999;DHT22;10160;50.926;4.374;2023-04-24T11:23:41;13.10;99.90
19999;DHT22;10160;50.926;4.374;2023-04-24T11:26:12;13.80;99.90
19999;DHT22;10160;50.926;4.374;2023-04-24T11:28:45;14.10;99.90
19999;DHT22;10160;50.926;4.374;2023-04-24T11:31:39;14.10;99.90
19999;DHT22;10160;50.926;4.374;2023-04-24T11:34:11;13.90;99.90
19999;DHT22;10160;50.926;4.374;2023-04-24T11:36:38;13.60;99.90
19999;DHT22;10160;50.926;4.374;2023-04-24T11:39:05;13.60;99.90
19999;DHT22;10160;50.926;4.374;2023-04-24T11:41:31;13.30;99.90
19999;DHT22;10160;50.926;4.374;2023-04-24T11:43:57;13.50;99.90
19999;DHT22;10160;50.926;4.374;2023-04-24T11:46:23;13.00;99.90
19999;DHT22;10160;50.926;4.374;2023-04-24T11:48:51;13.30;99.90
19999;DHT22;10160;50.926;4.374;2023-04-24T11:51:17;14.00;99.90
19999;DHT22;10160;50.926;4.374;2023-04-24T11:53:43;14.40;99.90
19999;DHT22;10160;50.926;4.374;2023-04-24T11:56:09;14.80;99.90
19999;DHT22;10160;50.926;4.374;2023-04-24T11:58:36;14.30;99.90
19999;DHT22;10160;50.926;4.374;2023-04-24T12:01:03;13.90;99.90
19999;DHT22;10160;50.926;4.374;2023-04-24T12:03:29;13.80;99.90
19999;DHT22;10160;50.926;4.374;2023-04-24T12:06:05;14.20;99.90
19999;DHT22;10160;50.926;4.374;2023-04-24T12:08:35;15.00;99.90
19999;DHT22;10160;50.926;4.374;2023-04-24T12:11:03;15.60;99.90
19999;DHT22;10160;50.926;4.374;2023-04-24T12:13:29;15.30;99.90
19999;DHT22;10160;50.926;4.374;2023-04-24T12:16:07;14.50;99.90
19999;DHT22;10160;50.926;4.374;2023-04-24T12:18:43;14.50;99.90
19999;DHT22;10160;50.926;4.374;2023-04-24T12:21:20;14.80;99.90
19999;DHT22;10160;50.926;4.374;2023-04-24T12:23:48;15.00;99.90
19999;DHT22;10160;50.926;4.374;2023-04-24T12:26:18;15.10;99.90
19999;DHT22;10160;50.926;4.374;2023-04-24T12:28:49;15.10;99.90
19999;DHT22;10160;50.926;4.374;2023-04-24T12:31:16;15.10;99.90
19999;DHT22;10160;50.926;4.374;2023-04-24T12:33:42;14.90;99.90
19999;DHT22;10160;50.926;4.374;2023-04-24T12:36:10;15.10;99.90
19999;DHT22;10160;50.926;4.374;2023-04-24T12:38:38;15.40;99.90
19999;DHT22;10160;50.926;4.374;2023-04-24T12:41:11;15.20;99.90
19999;DHT22;10160;50.926;4.374;2023-04-24T12:43:37;15.40;99.90
19999;DHT22;10160;50.926;4.374;2023-04-24T12:46:04;15.40;99.90
19999;DHT22;10160;50.926;4.374;2023-04-24T12:48:30;14.90;99.90
19999;DHT22;10160;50.926;4.374;2023-04-24T12:50:59;14.60;99.90
19999;DHT22;10160;50.926;4.374;2023-04-24T12:53:28;14.20;99.90
19999;DHT22;10160;50.926;4.374;2023-04-24T12:55:56;14.20;99.90
19999;DHT22;10160;50.926;4.374;2023-04-24T12:58:21;14.20;99.90
19999;DHT22;10160;50.926;4.374;2023-04-24T13:00:47;14.20;99.90
19999;DHT22;10160;50.926;4.374;2023-04-24T13:03:14;14.10;99.90
19999;DHT22;10160;50.926;4.374;2023-04-24T13:05:40;14.40;99.90
19999;DHT22;10160;50.926;4.374;2023-04-24T13:08:06;14.40;99.90
19999;DHT22;10160;50.926;4.374;2023-04-24T13:10:32;14.60;99.90
19999;DHT22;10160;50.926;4.374;2023-04-24T13:12:57;15.00;99.90
19999;DHT22;10160;50.926;4.374;2023-04-24T13:15:23;15.40;99.90
19999;DHT22;10160;50.926;4.374;2023-04-24T13:17:50;15.60;99.90
19999;DHT22;10160;50.926;4.374;2023-04-24T13:20:16;15.40;99.90
19999;DHT22;10160;50.926;4.374;2023-04-24T13:22:42;15.10;99.90
19999;DHT22;10160;50.926;4.374;2023-04-24T13:25:08;15.10;99.90
19999;DHT22;10160;50.926;4.374;2023-04-24T13:27:34;15.40;99.90
19999;DHT22;10160;50.926;4.374;2023-04-24T13:30:00;15.80;99.90
19999;DHT22;10160;50.926;4.374;2023-04-24T13:32:26;15.80;99.90
19999;DHT22;10160;50.926;4.374;2023-04-24T13:34:52;15.80;99.90
19999;DHT22;10160;50.926;4.374;2023-04-24T13:37:17;15.80;99.90
19999;DHT22;10160;50.926;4.374;2023-04-24T13:39:43;15.60;99.90
19999;DHT22;10160;50.926;4.374;2023-04-24T13:42:09;15.60;99.90
19999;DHT22;10160;50.926;4.374;2023-04-24T13:44:35;15.50;99.90
19999;DHT22;10160;50.926;4.374;2023-04-24T13:47:00;15.70;99.90
19999;DHT22;10160;50.926;4.374;2023-04-24T13:49:27;15.80;99.90
19999;DHT22;10160;50.926;4.374;2023-04-24T13:51:54;15.90;99.90
19999;DHT22;10160;50.926;4.374;2023-04-24T13:54:20;15.80;99.90
19999;DHT22;10160;50.926;4.374;2023-04-24T13:56:47;15.50;99.90
19999;DHT22;10160;50.926;4.374;2023-04-24T13:59:13;15.70;99.90
19999;DHT22;10160;50.926;4.374;2023-04-24T14:01:38;15.30;99.90
19999;DHT22;10160;50.926;4.374;2023-04-24T14:04:04;15.20;99.90
19999;DHT22;10160;50.926;4.374;2023-04-24T14:06:30;15.00;99.90
19999;DHT22;10160;50.926;4.374;2023-04-24T14:08:56;14.90;99.90
19999;DHT22;10160;50.926;4.374;2023-04-24T14:11:22;14.80;99.90
19999;DHT22;10160;50.926;4.374;2023-04-24T14:13:48;14.80;99.90
19999;DHT22;10160;50.926;4.374;2023-04-24T14:16:14;15.10;99.90
19999;DHT22;10160;50.926;4.374;2023-04-24T14:18:40;15.60;99.90
19999;DHT22;10160;50.926;4.374;2023-04-24T14:21:06;15.90;99.90
19999;DHT22;10160;50.926;4.374;2023-04-24T14:23:32;16.30;99.90
19999;DHT22;10160;50.926;4.374;2023-04-24T14:25:58;16.30;99.90
19999;DHT22;10160;50.926;4.374;2023-04-24T14:28:24;16.40;99.90
19999;DHT22;10160;50.926;4.374;2023-04-24T14:30:51;15.90;99.90
19999;DHT22;10160;50.926;4.374;2023-04-24T14:33:17;16.20;99.90
19999;DHT22;10160;50.926;4.374;2023-04-24T14:35:43;16.50;99.90
19999;DHT22;10160;50.926;4.374;2023-04-24T14:38:09;16.80;99.90
19999;DHT22;10160;50.926;4.374;2023-04-24T14:40:35;17.00;99.90
19999;DHT22;10160;50.926;4.374;2023-04-24T14:43:01;16.00;99.90
19999;DHT22;10160;50.926;4.374;2023-04-24T14:45:27;15.50;99.90
19999;DHT22;10160;50.926;4.374;2023-04-24T14:47:56;14.70;99.90
19999;DHT22;10160;50.926;4.374;2023-04-24T14:50:33;14.60;99.90
19999;DHT22;10160;50.926;4.374;2023-04-24T14:52:59;14.60;99.90
19999;DHT22;10160;50.926;4.374;2023-04-24T14:55:27;14.50;99.90
19999;DHT22;10160;50.926;4.374;2023-04-24T14:57:55;14.70;99.90
19999;DHT22;10160;50.926;4.374;2023-04-24T15:00:27;14.90;99.90
19999;DHT22;10160;50.926;4.374;2023-04-24T15:02:52;14.70;99.90
19999;DHT22;10160;50.926;4.374;2023-04-24T15:05:21;14.80;99.90
19999;DHT22;10160;50.926;4.374;2023-04-24T15:07:47;14.80;99.90
19999;DHT22;10160;50.926;4.374;2023-04-24T15:10:33;15.10;99.90
19999;DHT22;10160;50.926;4.374;2023-04-24T15:12:59;14.80;99.90
19999;DHT22;10160;50.926;4.374;2023-04-24T15:15:25;14.40;99.90
19999;DHT22;10160;50.926;4.374;2023-04-24T15:17:51;14.10;99.90
19999;DHT22;10160;50.926;4.374;2023-04-24T15:20:16;14.00;99.90
19999;DHT22;10160;50.926;4.374;2023-04-24T15:22:43;13.90;99.90
19999;DHT22;10160;50.926;4.374;2023-04-24T15:25:09;13.80;99.90
19999;DHT22;10160;50.926;4.374;2023-04-24T15:27:42;13.80;99.90
19999;DHT22;10160;50.926;4.374;2023-04-24T15:30:09;13.70;99.90
19999;DHT22;10160;50.926;4.374;2023-04-24T15:32:36;13.60;99.90
19999;DHT22;10160;50.926;4.374;2023-04-24T15:35:02;13.80;99.90
19999;DHT22;10160;50.926;4.374;2023-04-24T15:37:28;13.90;99.90
19999;DHT22;10160;50.926;4.374;2023-04-24T15:39:53;14.00;99.90
19999;DHT22;10160;50.926;4.374;2023-04-24T15:42:19;13.90;99.90